Time;durP1;ratioP1;P1;durP2;ratioP2;P2;SDS_P1;SDS_P2;PMS_P1;PMS_P2;Temp;Humidity;BMP_temperature;BMP_pressure;BME280_temperature;BME280_humidity;BME280_pressure;Samples;Min_cycle;Max_cycle;Signal;HPM_P1;HPM_P2
2023/09/24 00:02:10;;;;;;;1.85;1.17;;;19.50;68.30;;;;;;5053827;28;20186;-68
2023/09/24 00:04:36;;;;;;;3.90;1.92;;;19.40;68.20;;;;;;5053154;28;20214;-68
2023/09/24 00:07:02;;;;;;;1.50;1.20;;;19.50;68.20;;;;;;5053480;28;20186;-69
2023/09/24 00:09:27;;;;;;;1.52;1.15;;;19.40;68.20;;;;;;5052947;28;20205;-69
2023/09/24 00:11:53;;;;;;;3.13;1.38;;;19.40;68.20;;;;;;5053037;28;20238;-69
2023/09/24 00:14:18;;;;;;;2.72;1.40;;;19.50;68.20;;;;;;5053266;28;20193;-69
2023/09/24 00:16:44;;;;;;;1.42;1.00;;;19.40;68.10;;;;;;5053733;28;20175;-69
2023/09/24 00:19:10;;;;;;;2.17;1.27;;;19.40;68.10;;;;;;5052781;28;20202;-69
2023/09/24 00:21:36;;;;;;;1.90;1.20;;;19.40;68.20;;;;;;5053504;28;20202;-69
2023/09/24 00:24:03;;;;;;;2.17;1.40;;;19.40;68.10;;;;;;5053375;28;20172;-69
2023/09/24 00:26:29;;;;;;;1.60;1.25;;;19.40;68.10;;;;;;5052735;28;20194;-70
2023/09/24 00:28:54;;;;;;;1.83;1.30;;;19.40;68.10;;;;;;5053682;28;20179;-69
2023/09/24 00:31:22;;;;;;;2.13;1.40;;;19.40;68.10;;;;;;5052402;28;20302;-69
2023/09/24 00:33:48;;;;;;;2.25;1.27;;;19.40;68.00;;;;;;5053527;28;20179;-67
2023/09/24 00:36:15;;;;;;;1.90;1.35;;;19.40;68.00;;;;;;5053233;28;20178;-68
2023/09/24 00:38:41;;;;;;;1.40;1.20;;;19.40;68.00;;;;;;5052219;28;20765;-68
2023/09/24 00:41:06;;;;;;;1.38;1.27;;;19.40;68.00;;;;;;5052894;28;20206;-69
2023/09/24 00:43:33;;;;;;;1.33;1.20;;;19.40;68.00;;;;;;5053375;28;20171;-68
2023/09/24 00:46:03;;;;;;;2.45;1.38;;;19.40;68.00;;;;;;5052377;28;20202;-69
2023/09/24 00:48:30;;;;;;;1.23;1.08;;;19.40;68.70;;;;;;5052998;28;20210;-68
2023/09/24 00:51:04;;;;;;;1.20;1.10;;;19.40;68.00;;;;;;5053127;28;20289;-69
2023/09/24 00:53:30;;;;;;;1.38;1.20;;;19.40;67.90;;;;;;5052388;28;20538;-69
2023/09/24 00:55:56;;;;;;;2.33;1.40;;;19.40;67.90;;;;;;5052861;28;20649;-68
2023/09/24 00:58:25;;;;;;;2.38;1.20;;;19.40;67.90;;;;;;5052681;28;20183;-68
2023/09/24 01:00:55;;;;;;;1.40;1.17;;;19.40;67.90;;;;;;5052254;28;20225;-68
2023/09/24 01:03:22;;;;;;;1.42;1.30;;;19.30;68.70;;;;;;5052451;28;20723;-68
2023/09/24 01:05:49;;;;;;;1.75;1.05;;;19.40;67.90;;;;;;5052698;28;20171;-68
2023/09/24 01:08:19;;;;;;;1.08;1.08;;;19.30;67.90;;;;;;5051609;28;20254;-69
2023/09/24 01:10:48;;;;;;;1.55;1.45;;;19.30;67.80;;;;;;5052858;28;20684;-69
2023/09/24 01:13:20;;;;;;;1.20;1.10;;;19.30;67.80;;;;;;5052563;28;20202;-68
2023/09/24 01:15:52;;;;;;;1.58;1.20;;;19.30;67.80;;;;;;5052676;28;20206;-69
2023/09/24 01:18:18;;;;;;;1.30;1.20;;;19.30;67.80;;;;;;5052337;28;20185;-68
2023/09/24 01:20:44;;;;;;;2.28;1.17;;;19.30;67.80;;;;;;5051742;28;20536;-69
2023/09/24 01:23:10;;;;;;;2.10;1.23;;;19.30;67.70;;;;;;5052516;28;20178;-69
2023/09/24 01:25:37;;;;;;;1.35;1.10;;;19.40;67.80;;;;;;5052650;28;20645;-69
2023/09/24 01:28:03;;;;;;;1.27;1.10;;;19.30;67.70;;;;;;5050995;28;21052;-69
2023/09/24 01:30:29;;;;;;;1.83;1.13;;;19.30;67.70;;;;;;5052304;28;20683;-69
2023/09/24 01:32:57;;;;;;;1.58;1.30;;;19.30;67.70;;;;;;5052552;28;20187;-68
2023/09/24 01:35:27;;;;;;;2.00;1.23;;;19.30;67.70;;;;;;5051601;28;20175;-68
2023/09/24 01:37:54;;;;;;;1.40;1.00;;;19.30;67.60;;;;;;5051802;28;20234;-68
2023/09/24 01:40:21;;;;;;;1.08;0.98;;;19.30;67.60;;;;;;5051932;28;20301;-69
2023/09/24 01:42:47;;;;;;;2.38;1.30;;;19.30;67.60;;;;;;5051702;28;20179;-68
2023/09/24 01:45:13;;;;;;;1.27;1.10;;;19.30;67.60;;;;;;5052050;28;20207;-69
2023/09/24 01:47:39;;;;;;;1.77;1.30;;;19.20;67.50;;;;;;5052112;28;20190;-68
2023/09/24 01:50:08;;;;;;;1.27;1.17;;;19.20;67.50;;;;;;5051235;28;20538;-68
2023/09/24 01:52:34;;;;;;;1.17;1.05;;;19.20;67.50;;;;;;5052386;28;20175;-68
2023/09/24 01:55:00;;;;;;;1.00;1.00;;;19.20;67.50;;;;;;5052080;28;20646;-68
2023/09/24 01:57:26;;;;;;;1.55;1.15;;;19.20;67.50;;;;;;5051207;28;20206;-68
2023/09/24 01:59:52;;;;;;;1.02;0.98;;;19.20;67.40;;;;;;5051496;28;20179;-67
2023/09/24 02:02:18;;;;;;;1.02;1.00;;;19.20;67.40;;;;;;5051813;28;20175;-69
2023/09/24 02:04:43;;;;;;;1.00;1.00;;;19.20;67.40;;;;;;5051868;28;20167;-68
2023/09/24 02:07:11;;;;;;;1.42;1.33;;;19.20;67.40;;;;;;5051797;28;20188;-69
2023/09/24 02:09:37;;;;;;;2.25;1.80;;;19.20;67.40;;;;;;5051475;28;20266;-69
2023/09/24 02:12:03;;;;;;;1.40;1.17;;;19.20;67.40;;;;;;5051783;28;20301;-69
2023/09/24 02:14:28;;;;;;;1.30;1.00;;;19.20;67.40;;;;;;5052054;28;20250;-68
2023/09/24 02:16:55;;;;;;;1.10;1.00;;;19.20;67.40;;;;;;5051043;28;20183;-68
2023/09/24 02:19:24;;;;;;;1.23;1.13;;;19.20;67.30;;;;;;5051975;28;20567;-69
2023/09/24 02:21:49;;;;;;;1.60;1.50;;;19.20;67.30;;;;;;5052189;28;20179;-69
2023/09/24 02:24:15;;;;;;;1.38;1.20;;;19.20;67.30;;;;;;5050939;28;20220;-69
2023/09/24 02:26:41;;;;;;;1.20;1.10;;;19.20;67.20;;;;;;5051675;28;20217;-70
2023/09/24 02:29:07;;;;;;;1.85;1.35;;;19.20;67.20;;;;;;5051752;28;20175;-69
2023/09/24 02:31:33;;;;;;;1.75;1.23;;;19.20;67.20;;;;;;5051127;28;20684;-68
2023/09/24 02:33:59;;;;;;;1.80;1.02;;;19.20;67.20;;;;;;5055029;28;20232;-68
2023/09/24 02:36:24;;;;;;;0.95;0.95;;;19.20;67.20;;;;;;5055103;28;20266;-68
2023/09/24 02:38:50;;;;;;;1.10;1.00;;;19.10;67.20;;;;;;5054869;28;20179;-68
2023/09/24 02:41:16;;;;;;;0.82;0.80;;;19.10;67.10;;;;;;5055211;28;20183;-69
2023/09/24 02:43:41;;;;;;;1.27;1.17;;;19.20;67.20;;;;;;5055570;28;20644;-68
2023/09/24 02:46:09;;;;;;;1.02;0.93;;;19.10;67.10;;;;;;5054237;28;20656;-69
2023/09/24 02:48:35;;;;;;;1.42;1.10;;;19.10;67.00;;;;;;5055277;28;20167;-68
2023/09/24 02:51:08;;;;;;;1.65;1.13;;;19.10;67.10;;;;;;5055288;28;20241;-70
2023/09/24 02:53:35;;;;;;;1.35;0.88;;;19.10;67.00;;;;;;5054400;28;20175;-68
2023/09/24 02:56:00;;;;;;;1.77;1.27;;;19.10;67.80;;;;;;5054794;28;20183;-68
2023/09/24 02:58:26;;;;;;;1.25;1.10;;;19.10;67.00;;;;;;5055093;28;20175;-68
2023/09/24 03:00:51;;;;;;;1.80;1.13;;;19.10;67.00;;;;;;5054460;28;20214;-69
2023/09/24 03:03:17;;;;;;;1.58;0.90;;;19.10;67.00;;;;;;5054769;28;20179;-69
2023/09/24 03:05:43;;;;;;;0.98;0.98;;;19.10;66.90;;;;;;5054951;28;20186;-69
2023/09/24 03:08:09;;;;;;;1.20;1.10;;;19.10;67.00;;;;;;5054197;28;20171;-69
2023/09/24 03:10:35;;;;;;;1.83;1.10;;;19.10;67.00;;;;;;5055011;28;20207;-70
2023/09/24 03:13:02;;;;;;;1.10;1.00;;;19.10;67.00;;;;;;5054072;28;20178;-69
2023/09/24 03:15:28;;;;;;;1.20;1.10;;;19.10;66.90;;;;;;5054648;28;20175;-69
2023/09/24 03:17:53;;;;;;;1.08;0.90;;;19.10;66.90;;;;;;5054822;28;20182;-69
2023/09/24 03:20:19;;;;;;;1.35;1.25;;;19.10;67.00;;;;;;5053939;28;20190;-70
2023/09/24 03:22:49;;;;;;;1.33;1.10;;;19.10;66.90;;;;;;5054775;28;20540;-69
2023/09/24 03:25:16;;;;;;;2.00;1.10;;;19.10;66.90;;;;;;5054346;28;20186;-70
2023/09/24 03:27:42;;;;;;;1.08;1.00;;;19.00;66.80;;;;;;5054041;28;20186;-69
2023/09/24 03:30:13;;;;;;;1.75;0.90;;;19.00;66.80;;;;;;5054511;28;20175;-69
2023/09/24 03:32:40;;;;;;;2.35;1.02;;;19.10;66.90;;;;;;5054698;28;20211;-68
2023/09/24 03:35:08;;;;;;;1.13;1.10;;;19.00;66.70;;;;;;5053414;28;20245;-68
2023/09/24 03:37:34;;;;;;;2.08;1.20;;;19.00;66.80;;;;;;5054103;28;20229;-68
2023/09/24 03:39:59;;;;;;;1.20;1.10;;;19.10;66.90;;;;;;5054210;28;20179;-69
2023/09/24 03:42:25;;;;;;;1.08;1.02;;;19.00;66.80;;;;;;5053471;28;20205;-69
2023/09/24 03:44:52;;;;;;;1.70;1.30;;;19.00;66.70;;;;;;5054310;28;20637;-69
2023/09/24 03:47:18;;;;;;;1.48;1.10;;;19.10;66.90;;;;;;5053676;28;20225;-69
2023/09/24 03:49:44;;;;;;;1.90;1.27;;;19.00;66.70;;;;;;5053829;28;20175;-69
2023/09/24 03:52:10;;;;;;;1.52;1.25;;;19.00;66.70;;;;;;5053900;28;20301;-70
2023/09/24 03:54:38;;;;;;;1.80;1.17;;;19.00;66.70;;;;;;5054182;28;20659;-68
2023/09/24 03:57:05;;;;;;;1.08;0.82;;;19.00;66.70;;;;;;5052545;28;20190;-69
2023/09/24 03:59:34;;;;;;;2.10;1.20;;;19.00;66.70;;;;;;5054202;28;20185;-68
2023/09/24 04:02:00;;;;;;;1.70;1.13;;;19.00;66.60;;;;;;5054022;28;20266;-68
2023/09/24 04:04:26;;;;;;;0.93;0.90;;;19.00;66.70;;;;;;5053387;28;20210;-69
2023/09/24 04:06:52;;;;;;;1.23;1.13;;;19.00;66.70;;;;;;5053013;28;20262;-69
2023/09/24 04:09:17;;;;;;;1.90;1.20;;;19.00;67.50;;;;;;5052354;28;20258;-69
2023/09/24 04:11:43;;;;;;;1.10;1.00;;;19.00;66.60;;;;;;5054055;28;20318;-70
2023/09/24 04:14:08;;;;;;;1.88;1.15;;;19.00;66.60;;;;;;5053606;28;20202;-69
2023/09/24 04:16:34;;;;;;;1.25;1.15;;;18.90;66.60;;;;;;5052869;28;20277;-69
2023/09/24 04:18:59;;;;;;;1.13;1.02;;;19.00;66.50;;;;;;5053648;28;20171;-69
2023/09/24 04:21:25;;;;;;;1.85;1.02;;;18.90;66.50;;;;;;5053474;28;20540;-70
2023/09/24 04:23:51;;;;;;;0.93;0.93;;;18.90;66.50;;;;;;5052888;28;20535;-69
2023/09/24 04:26:21;;;;;;;1.05;0.80;;;18.90;66.50;;;;;;5035037;28;20183;-70
2023/09/24 04:28:47;;;;;;;1.30;1.20;;;18.90;66.40;;;;;;5053340;28;20175;-69
2023/09/24 04:31:13;;;;;;;1.23;1.13;;;18.90;66.40;;;;;;5052560;28;20223;-70
2023/09/24 04:33:38;;;;;;;0.90;0.90;;;18.90;66.40;;;;;;5053528;28;20216;-68
2023/09/24 04:36:05;;;;;;;1.20;1.10;;;18.90;66.40;;;;;;5052841;28;20221;-68
2023/09/24 04:38:31;;;;;;;1.38;1.10;;;18.90;66.40;;;;;;5052382;28;20259;-68
2023/09/24 04:40:57;;;;;;;1.20;1.02;;;18.90;66.40;;;;;;5053326;28;20210;-69
2023/09/24 04:43:22;;;;;;;1.30;1.00;;;18.80;66.40;;;;;;5053245;28;20175;-68
2023/09/24 04:45:49;;;;;;;1.48;1.15;;;18.90;66.40;;;;;;5052198;28;20171;-69
2023/09/24 04:48:14;;;;;;;1.10;1.00;;;18.90;66.40;;;;;;5052561;28;20672;-69
2023/09/24 04:50:40;;;;;;;1.88;1.10;;;18.90;66.40;;;;;;5052881;28;20203;-69
2023/09/24 04:53:06;;;;;;;1.17;1.08;;;18.90;66.30;;;;;;5052060;28;20186;-69
2023/09/24 04:55:33;;;;;;;1.20;1.00;;;18.90;66.40;;;;;;5052128;28;20254;-69
2023/09/24 04:57:59;;;;;;;1.20;1.02;;;18.80;66.40;;;;;;5052762;28;20179;-68
2023/09/24 05:00:24;;;;;;;1.40;1.05;;;18.90;66.30;;;;;;5052200;28;20221;-69
2023/09/24 05:02:50;;;;;;;1.27;1.13;;;18.80;66.30;;;;;;5053060;28;20175;-68
2023/09/24 05:05:16;;;;;;;0.95;0.90;;;18.80;66.30;;;;;;5052580;28;20645;-69
2023/09/24 05:07:41;;;;;;;1.20;1.10;;;18.80;66.20;;;;;;5051887;28;20179;-69
2023/09/24 05:10:08;;;;;;;1.38;1.27;;;18.80;66.30;;;;;;5052637;28;20182;-69
2023/09/24 05:12:33;;;;;;;1.33;1.23;;;18.90;66.30;;;;;;5052204;28;20178;-69
2023/09/24 05:14:59;;;;;;;1.20;1.10;;;18.80;66.20;;;;;;5052720;28;20659;-69
2023/09/24 05:17:25;;;;;;;1.40;1.15;;;18.80;66.20;;;;;;5051920;28;20744;-69
2023/09/24 05:19:50;;;;;;;1.08;1.08;;;18.80;66.20;;;;;;5052031;28;20175;-69
2023/09/24 05:22:16;;;;;;;1.50;1.10;;;18.80;66.20;;;;;;5052289;28;20186;-69
2023/09/24 05:24:42;;;;;;;1.20;1.10;;;18.80;66.20;;;;;;5053006;28;20209;-70
2023/09/24 05:27:07;;;;;;;1.80;1.05;;;18.80;66.30;;;;;;5051689;28;20198;-71
2023/09/24 05:29:33;;;;;;;1.42;1.20;;;18.80;66.20;;;;;;5052676;28;20179;-69
2023/09/24 05:32:01;;;;;;;1.52;1.20;;;18.80;66.20;;;;;;5052310;28;20297;-69
2023/09/24 05:34:27;;;;;;;1.20;1.10;;;18.80;66.20;;;;;;5051657;28;20167;-68
2023/09/24 05:36:53;;;;;;;1.27;1.17;;;18.80;66.20;;;;;;5052006;28;20245;-69
2023/09/24 05:39:18;;;;;;;1.08;1.00;;;18.80;66.20;;;;;;5052008;28;20182;-69
2023/09/24 05:41:44;;;;;;;1.42;1.30;;;18.70;66.10;;;;;;5051871;28;20175;-69
2023/09/24 05:44:10;;;;;;;2.42;1.50;;;18.70;66.10;;;;;;5052234;28;20527;-69
2023/09/24 05:46:35;;;;;;;1.15;1.08;;;18.80;66.10;;;;;;5051968;28;20305;-69
2023/09/24 05:49:01;;;;;;;1.60;1.08;;;18.80;66.00;;;;;;5051421;28;20546;-69
2023/09/24 05:51:26;;;;;;;1.10;1.00;;;18.70;66.00;;;;;;5052144;28;20264;-70
2023/09/24 05:53:52;;;;;;;1.40;1.30;;;18.70;66.00;;;;;;5052308;28;20205;-69
2023/09/24 05:56:18;;;;;;;1.48;1.20;;;18.80;66.00;;;;;;5050972;28;20187;-69
2023/09/24 05:58:44;;;;;;;1.10;1.00;;;18.70;66.00;;;;;;5052267;28;20182;-68
2023/09/24 06:01:15;;;;;;;1.45;1.02;;;18.80;66.20;;;;;;5052017;28;20194;-69
2023/09/24 06:03:41;;;;;;;1.20;1.10;;;18.70;66.10;;;;;;5051287;28;20252;-69
2023/09/24 06:06:10;;;;;;;1.50;1.40;;;18.70;66.20;;;;;;5051509;28;20641;-70
2023/09/24 06:08:37;;;;;;;3.20;2.90;;;18.70;66.10;;;;;;5055299;28;20187;-70
2023/09/24 06:11:03;;;;;;;3.17;2.88;;;18.70;66.20;;;;;;5055239;28;20211;-70
2023/09/24 06:13:28;;;;;;;4.15;3.33;;;18.70;66.20;;;;;;5056223;28;20175;-69
2023/09/24 06:16:01;;;;;;;3.53;3.10;;;18.70;66.40;;;;;;5055265;28;20668;-69
2023/09/24 06:18:26;;;;;;;3.33;3.13;;;18.70;66.40;;;;;;5055862;28;20257;-69
2023/09/24 06:20:52;;;;;;;3.22;3.00;;;18.70;66.60;;;;;;5056269;28;20187;-70
2023/09/24 06:23:17;;;;;;;2.92;2.72;;;18.70;66.40;;;;;;5055056;28;20645;-69
2023/09/24 06:25:43;;;;;;;2.92;2.72;;;18.70;66.40;;;;;;5055734;28;20575;-70
2023/09/24 06:28:11;;;;;;;3.25;2.95;;;18.70;66.60;;;;;;5055312;28;20183;-69
2023/09/24 06:30:40;;;;;;;2.50;2.30;;;18.70;66.60;;;;;;5055068;28;20286;-69
2023/09/24 06:33:06;;;;;;;2.92;2.72;;;18.70;66.60;;;;;;5037274;28;20183;-69
2023/09/24 06:35:35;;;;;;;2.70;2.50;;;18.70;66.70;;;;;;5055719;28;20266;-69
2023/09/24 06:38:01;;;;;;;2.60;2.40;;;18.70;66.90;;;;;;5054642;28;20230;-69
2023/09/24 06:40:26;;;;;;;2.65;2.45;;;18.70;67.00;;;;;;5055635;28;20175;-70
2023/09/24 06:42:52;;;;;;;2.63;2.42;;;18.80;67.10;;;;;;5055434;28;20187;-69
2023/09/24 06:45:17;;;;;;;2.45;2.25;;;18.80;67.20;;;;;;5054462;28;20523;-69
2023/09/24 06:47:43;;;;;;;2.83;2.45;;;18.80;67.30;;;;;;5055498;28;20570;-69
2023/09/24 06:50:10;;;;;;;2.58;2.38;;;18.80;67.20;;;;;;5055006;28;20177;-69
2023/09/24 06:52:36;;;;;;;2.28;2.17;;;18.80;67.10;;;;;;5054467;28;20258;-69
2023/09/24 06:55:02;;;;;;;2.67;2.47;;;18.80;67.20;;;;;;5055152;28;20202;-69
2023/09/24 06:57:28;;;;;;;2.33;2.15;;;18.80;67.20;;;;;;5055334;28;20520;-68
2023/09/24 06:59:53;;;;;;;2.20;2.10;;;18.90;67.30;;;;;;5054582;28;20186;-68
2023/09/24 07:02:19;;;;;;;2.50;2.30;;;18.80;67.10;;;;;;5054693;28;20187;-69
2023/09/24 07:04:44;;;;;;;2.45;2.30;;;18.80;67.20;;;;;;5055179;28;20687;-69
2023/09/24 07:07:10;;;;;;;2.30;2.20;;;18.80;67.30;;;;;;5054559;28;20540;-69
2023/09/24 07:09:35;;;;;;;3.10;2.17;;;18.80;67.30;;;;;;5054946;28;20690;-68
2023/09/24 07:12:01;;;;;;;2.58;2.08;;;18.80;67.30;;;;;;5053498;28;20237;-69
2023/09/24 07:14:27;;;;;;;2.50;2.30;;;18.90;67.40;;;;;;5054886;28;20171;-69
2023/09/24 07:16:52;;;;;;;2.35;2.17;;;18.90;67.40;;;;;;5054934;28;20183;-69
2023/09/24 07:19:21;;;;;;;2.08;1.88;;;18.90;67.40;;;;;;5053651;28;20186;-69
2023/09/24 07:21:46;;;;;;;2.30;2.15;;;18.90;67.40;;;;;;5054642;28;20182;-70
2023/09/24 07:24:13;;;;;;;2.40;2.10;;;18.90;67.40;;;;;;5054672;28;20258;-69
2023/09/24 07:26:38;;;;;;;2.05;1.90;;;18.90;67.30;;;;;;5053834;28;20220;-72
2023/09/24 07:29:04;;;;;;;2.20;2.08;;;18.90;67.30;;;;;;5054411;28;20573;-69
2023/09/24 07:31:29;;;;;;;2.30;2.10;;;18.90;67.40;;;;;;5054188;28;20211;-70
2023/09/24 07:33:56;;;;;;;5.60;2.20;;;19.00;67.40;;;;;;5053882;28;20175;-69
2023/09/24 07:36:22;;;;;;;2.22;2.03;;;19.00;67.50;;;;;;5054128;28;20269;-70
2023/09/24 07:38:49;;;;;;;4.25;2.47;;;19.00;67.30;;;;;;5054537;28;20277;-69
2023/09/24 07:41:15;;;;;;;4.65;2.55;;;19.10;67.40;;;;;;5053140;28;20590;-70
2023/09/24 07:43:44;;;;;;;6.07;2.65;;;19.10;67.50;;;;;;5054154;28;20653;-68
2023/09/24 07:46:12;;;;;;;5.30;2.60;;;19.10;68.10;;;;;;5053920;28;20262;-74
2023/09/24 07:48:38;;;;;;;4.15;2.53;;;19.10;67.50;;;;;;5053523;28;20626;-71
2023/09/24 07:51:04;;;;;;;2.97;2.40;;;19.10;67.70;;;;;;5052563;28;20222;-72
2023/09/24 07:53:29;;;;;;;5.32;2.72;;;19.20;67.90;;;;;;5052801;28;20221;-70
2023/09/24 07:56:02;;;;;;;5.25;3.00;;;19.20;67.90;;;;;;5053299;28;20229;-67
2023/09/24 07:58:30;;;;;;;3.35;2.28;;;19.30;67.90;;;;;;5054052;28;20179;-66
2023/09/24 08:01:00;;;;;;;3.90;2.70;;;19.40;68.00;;;;;;5053626;28;20175;-68
2023/09/24 08:03:26;;;;;;;4.25;2.67;;;19.40;68.00;;;;;;5036194;28;20179;-68
2023/09/24 08:05:52;;;;;;;6.45;2.83;;;19.50;68.00;;;;;;5054004;28;20175;-68
2023/09/24 08:08:18;;;;;;;7.40;2.58;;;19.50;68.10;;;;;;5053099;28;20183;-67
2023/09/24 08:10:43;;;;;;;5.35;2.55;;;19.50;68.00;;;;;;5053673;28;20249;-68
2023/09/24 08:13:09;;;;;;;4.00;2.30;;;19.60;68.10;;;;;;5053292;28;20197;-67
2023/09/24 08:15:34;;;;;;;5.38;2.70;;;19.60;68.10;;;;;;5053153;28;20220;-68
2023/09/24 08:18:00;;;;;;;4.03;2.80;;;19.70;68.20;;;;;;5053335;28;20175;-67
2023/09/24 08:20:26;;;;;;;3.33;2.45;;;19.60;68.00;;;;;;5053567;28;20579;-70
2023/09/24 08:22:52;;;;;;;4.35;2.65;;;19.60;68.10;;;;;;5052733;28;20214;-72
2023/09/24 08:25:17;;;;;;;5.55;2.47;;;19.70;68.00;;;;;;5053218;28;20175;-72
2023/09/24 08:27:44;;;;;;;6.03;2.58;;;19.80;67.90;;;;;;5053449;28;20190;-68
2023/09/24 08:30:10;;;;;;;6.00;2.58;;;19.80;67.70;;;;;;5050907;28;20639;-67
2023/09/24 08:32:35;;;;;;;4.32;2.35;;;19.80;67.70;;;;;;5053506;28;20183;-67
2023/09/24 08:35:02;;;;;;;4.30;2.53;;;19.80;67.70;;;;;;5053242;28;20178;-68
2023/09/24 08:37:28;;;;;;;9.35;2.42;;;19.80;67.80;;;;;;5052504;28;20226;-68
2023/09/24 08:39:53;;;;;;;6.72;2.67;;;19.80;67.70;;;;;;5053269;28;20204;-69
2023/09/24 08:42:19;;;;;;;2.85;2.08;;;19.80;67.80;;;;;;5052562;28;20203;-68
2023/09/24 08:44:46;;;;;;;3.45;2.42;;;19.90;67.80;;;;;;5052486;28;20183;-67
2023/09/24 08:47:11;;;;;;;3.97;2.33;;;19.80;67.80;;;;;;5035522;28;20171;-68
2023/09/24 08:49:37;;;;;;;5.82;2.58;;;19.90;67.80;;;;;;5035466;28;20176;-68
2023/09/24 08:52:03;;;;;;;6.03;2.72;;;19.90;67.80;;;;;;5034450;28;20218;-68
2023/09/24 08:54:30;;;;;;;3.60;2.30;;;19.90;67.80;;;;;;5035324;28;20532;-68
2023/09/24 08:56:55;;;;;;;5.60;2.05;;;19.90;67.80;;;;;;5019181;28;20187;-68
2023/09/24 08:59:21;;;;;;;2.90;2.08;;;19.90;67.80;;;;;;5034362;28;20565;-68
2023/09/24 09:01:54;;;;;;;2.60;2.28;;;19.90;67.70;;;;;;5052889;28;20515;-69
2023/09/24 09:04:20;;;;;;;3.85;2.00;;;20.00;68.20;;;;;;5052580;28;20179;-68
2023/09/24 09:06:45;;;;;;;4.97;2.38;;;20.00;67.90;;;;;;5052189;28;20175;-69
2023/09/24 09:09:11;;;;;;;4.43;2.15;;;20.00;68.70;;;;;;5052388;28;20199;-69
2023/09/24 09:11:40;;;;;;;2.25;2.15;;;20.00;67.90;;;;;;5034053;28;20226;-68
2023/09/24 09:14:07;;;;;;;4.03;1.90;;;20.00;67.80;;;;;;5052569;28;20183;-68
2023/09/24 09:16:33;;;;;;;3.88;2.03;;;20.00;67.80;;;;;;5052822;28;20262;-69
2023/09/24 09:19:00;;;;;;;2.65;2.13;;;20.00;67.80;;;;;;5051873;28;20186;-68
2023/09/24 09:21:25;;;;;;;3.03;1.98;;;20.00;67.70;;;;;;5052595;28;20590;-70
2023/09/24 09:23:51;;;;;;;2.33;1.70;;;20.10;67.70;;;;;;5052651;28;20171;-68
2023/09/24 09:26:17;;;;;;;3.55;1.90;;;20.10;67.70;;;;;;5051466;28;20545;-69
2023/09/24 09:28:42;;;;;;;5.78;2.15;;;20.20;67.70;;;;;;5034735;28;20660;-68
2023/09/24 09:31:09;;;;;;;4.55;2.10;;;20.20;67.70;;;;;;5052355;28;20214;-68
2023/09/24 09:33:39;;;;;;;2.67;1.85;;;20.20;67.70;;;;;;5051843;28;20195;-68
2023/09/24 09:36:21;;;;;;;2.25;1.67;;;20.20;68.50;;;;;;5052325;28;20175;-68
2023/09/24 09:38:46;;;;;;;2.15;1.80;;;20.20;67.50;;;;;;5037064;28;20198;-69
2023/09/24 09:41:12;;;;;;;4.10;1.80;;;20.20;67.50;;;;;;5051569;28;20167;-69
2023/09/24 09:43:38;;;;;;;2.88;1.48;;;20.20;67.50;;;;;;5018289;28;20654;-67
2023/09/24 09:46:03;;;;;;;2.75;1.70;;;20.20;67.40;;;;;;5018159;28;20163;-68
2023/09/24 09:48:32;;;;;;;4.57;2.10;;;20.30;68.20;;;;;;5017477;28;20233;-67
2023/09/24 09:51:05;;;;;;;1.80;1.70;;;20.30;67.40;;;;;;5051955;28;20230;-68
2023/09/24 09:53:34;;;;;;;2.88;1.98;;;20.30;67.30;;;;;;5052220;28;20633;-68
2023/09/24 09:56:05;;;;;;;2.00;1.75;;;20.30;67.30;;;;;;5051198;28;20641;-70
2023/09/24 09:58:36;;;;;;;3.22;1.80;;;20.40;67.20;;;;;;5052147;28;20637;-68
2023/09/24 10:01:02;;;;;;;1.85;1.75;;;20.40;67.20;;;;;;5051275;28;20187;-69
2023/09/24 10:03:28;;;;;;;2.92;2.05;;;20.40;67.10;;;;;;5052064;28;20531;-68
2023/09/24 10:05:54;;;;;;;1.70;1.38;;;20.40;67.00;;;;;;5018070;28;20179;-69
2023/09/24 10:08:42;;;;;;;2.50;1.70;;;20.40;67.00;;;;;;5016820;28;20205;-69
2023/09/24 10:11:09;;;;;;;2.25;1.83;;;20.40;67.00;;;;;;5051953;28;20289;-69
2023/09/24 10:13:47;;;;;;;2.85;1.73;;;20.50;67.00;;;;;;5052039;28;20194;-69
2023/09/24 10:16:25;;;;;;;2.22;1.77;;;20.50;66.90;;;;;;5051036;28;20187;-69
2023/09/24 10:19:06;;;;;;;1.77;1.50;;;20.50;66.90;;;;;;5052368;28;20171;-69
2023/09/24 10:21:35;;;;;;;2.15;1.92;;;20.50;66.90;;;;;;5051976;28;20563;-69
2023/09/24 10:24:09;;;;;;;1.90;1.60;;;20.50;66.90;;;;;;5051079;28;20229;-69
2023/09/24 10:27:03;;;;;;;2.35;1.70;;;20.50;66.80;;;;;;5052073;28;20585;-69
2023/09/24 10:29:55;;;;;;;3.42;1.77;;;20.50;66.80;;;;;;5051191;28;20627;-67
2023/09/24 10:32:21;;;;;;;1.95;1.58;;;20.50;66.80;;;;;;5051481;28;20219;-68
2023/09/24 10:34:55;;;;;;;2.13;1.60;;;20.50;66.70;;;;;;5051887;28;20262;-67
2023/09/24 10:37:21;;;;;;;2.22;1.70;;;20.50;66.70;;;;;;5050791;28;20233;-68
2023/09/24 10:40:05;;;;;;;1.70;1.60;;;20.50;66.70;;;;;;5051880;28;20653;-68
2023/09/24 10:42:34;;;;;;;1.50;1.40;;;20.50;66.70;;;;;;5051976;28;20300;-68
2023/09/24 10:45:06;;;;;;;1.70;1.60;;;20.60;66.70;;;;;;5050785;28;20179;-68
2023/09/24 10:47:37;;;;;;;1.80;1.70;;;20.60;66.70;;;;;;5051688;28;20225;-68
2023/09/24 10:50:08;;;;;;;1.50;1.40;;;20.60;66.60;;;;;;5050863;28;20734;-68
2023/09/24 10:52:53;;;;;;;1.88;1.70;;;20.60;66.60;;;;;;5051676;28;20293;-68
2023/09/24 10:55:45;;;;;;;2.33;1.40;;;20.60;66.50;;;;;;5055092;28;20201;-68
2023/09/24 10:58:12;;;;;;;2.72;1.50;;;20.60;66.50;;;;;;5054497;28;20183;-68
2023/09/24 11:00:38;;;;;;;2.03;1.60;;;20.60;66.40;;;;;;5055409;28;20197;-68
2023/09/24 11:03:05;;;;;;;3.35;1.75;;;20.60;66.30;;;;;;5054902;28;20630;-68
2023/09/24 11:05:39;;;;;;;1.85;1.55;;;20.70;66.40;;;;;;5054321;28;20190;-69
2023/09/24 11:08:05;;;;;;;1.65;1.48;;;20.70;66.40;;;;;;5054751;28;20633;-68
2023/09/24 11:10:31;;;;;;;1.50;1.40;;;20.70;66.30;;;;;;5055023;28;20195;-69
2023/09/24 11:13:00;;;;;;;1.98;1.48;;;20.70;66.30;;;;;;5054600;28;20175;-69
2023/09/24 11:15:28;;;;;;;1.42;1.23;;;20.70;66.20;;;;;;5054921;28;20189;-69
2023/09/24 11:17:53;;;;;;;3.13;1.27;;;20.80;66.20;;;;;;5037529;28;20190;-69
2023/09/24 11:20:21;;;;;;;1.30;1.15;;;20.70;66.10;;;;;;5053778;28;20171;-69
2023/09/24 11:22:57;;;;;;;1.73;1.30;;;20.70;66.10;;;;;;5054809;28;20175;-70
2023/09/24 11:25:23;;;;;;;2.28;1.58;;;20.70;66.10;;;;;;5053621;28;20578;-69
2023/09/24 11:27:50;;;;;;;1.60;1.48;;;20.80;66.10;;;;;;5054945;28;20200;-68
2023/09/24 11:30:23;;;;;;;2.85;1.63;;;20.80;66.00;;;;;;5054308;28;20630;-68
2023/09/24 11:32:49;;;;;;;1.70;1.30;;;20.80;65.90;;;;;;5054271;28;20179;-68
2023/09/24 11:35:16;;;;;;;1.63;1.40;;;20.80;65.90;;;;;;5054203;28;20172;-68
2023/09/24 11:37:58;;;;;;;1.75;1.40;;;20.80;65.80;;;;;;5054383;28;20618;-68
2023/09/24 11:40:28;;;;;;;1.42;1.20;;;20.90;65.80;;;;;;5053798;28;20182;-69
2023/09/24 11:42:54;;;;;;;1.88;1.50;;;20.90;65.70;;;;;;5054583;28;20221;-68
2023/09/24 11:45:42;;;;;;;2.40;1.25;;;20.90;65.70;;;;;;5054049;28;20537;-68
2023/09/24 11:48:12;;;;;;;1.92;1.40;;;20.90;65.50;;;;;;5053561;28;20175;-68
2023/09/24 11:50:39;;;;;;;2.15;1.38;;;21.00;65.60;;;;;;5054197;28;20218;-68
2023/09/24 11:53:04;;;;;;;1.25;1.10;;;21.00;65.60;;;;;;5054298;28;20175;-68
2023/09/24 11:55:30;;;;;;;1.67;1.10;;;21.00;65.50;;;;;;5053472;28;20224;-68
2023/09/24 11:57:56;;;;;;;1.67;1.52;;;21.00;65.60;;;;;;5054298;28;20629;-68
2023/09/24 12:00:21;;;;;;;1.20;1.10;;;21.00;65.60;;;;;;5053684;28;20182;-68
2023/09/24 12:02:47;;;;;;;1.67;1.20;;;21.00;65.50;;;;;;5053759;28;20178;-68
2023/09/24 12:05:12;;;;;;;1.45;1.27;;;20.90;65.50;;;;;;5052873;28;20171;-69
2023/09/24 12:07:38;;;;;;;2.88;1.45;;;21.00;65.60;;;;;;5053529;28;20679;-68
2023/09/24 12:10:04;;;;;;;1.65;1.33;;;20.90;65.50;;;;;;5053899;28;20626;-69
2023/09/24 12:12:30;;;;;;;2.22;1.55;;;20.90;65.50;;;;;;5053889;28;20305;-69
2023/09/24 12:14:55;;;;;;;2.50;1.52;;;20.90;65.50;;;;;;5053067;28;20305;-69
2023/09/24 12:17:21;;;;;;;1.95;1.10;;;21.00;65.60;;;;;;5053422;28;20179;-69
2023/09/24 12:19:47;;;;;;;1.23;1.10;;;21.00;65.50;;;;;;5053669;28;20171;-69
2023/09/24 12:22:13;;;;;;;2.92;1.60;;;21.00;65.50;;;;;;5052813;28;20210;-69
2023/09/24 12:24:39;;;;;;;1.83;1.42;;;21.00;65.50;;;;;;5053711;28;20199;-69
2023/09/24 12:27:04;;;;;;;1.73;1.20;;;21.00;65.40;;;;;;5053329;28;20206;-69
2023/09/24 12:29:30;;;;;;;2.00;1.20;;;21.00;65.40;;;;;;5052728;28;20551;-68
2023/09/24 12:31:56;;;;;;;1.38;1.25;;;21.00;65.40;;;;;;5053675;28;20210;-68
2023/09/24 12:34:22;;;;;;;1.40;1.30;;;21.00;65.40;;;;;;5053151;28;20516;-67
2023/09/24 12:36:47;;;;;;;1.52;1.17;;;20.90;65.40;;;;;;5052486;28;20223;-69
2023/09/24 12:39:13;;;;;;;2.25;1.30;;;20.90;65.60;;;;;;5053034;28;20167;-69
2023/09/24 12:41:39;;;;;;;1.70;1.23;;;20.90;65.60;;;;;;5053280;28;20179;-68
2023/09/24 12:44:04;;;;;;;2.08;1.60;;;20.90;65.40;;;;;;5052287;28;20733;-68
2023/09/24 12:46:30;;;;;;;2.65;1.00;;;21.00;65.30;;;;;;5053328;28;20253;-68
2023/09/24 12:48:55;;;;;;;1.70;1.25;;;21.00;65.10;;;;;;5053409;28;20179;-68